Monster, Netherlands
Current Conditions -  °F | °C
As of 5:25 PM on Friday 24 Oct 2014 (Local Time) from EHRD Reporting Station
Drizzle Drizzle  
Wind Chill: 55°   Ceiling: 700
Heat Index: 55°   Visibility: 2.8mi
Dew Point: 54°   Wind: 12mph
Humidity: 94%   Direction: 190°S
Pressure: 29.97"   Gusts: NA
Location:  52.03°N, 4.18°E
Report Text: EHRD 241525Z AUTO 19010KT 160V220 4500 -DZ SCT006 BKN007 OVC00913/12 Q1015 TEMPO BKN004
Loading
Personal Weather Stations






























Interactive Weather Map
Tropical Storm Tracking
New forecast layout! Learn more

10-Day Weather Forecast

Advertisements
Track Severe Weather on mobile